createdAt,value
2022-08-22T00:02:09.010Z,18.62
2022-08-22T00:02:49.791Z,17.72
2022-08-22T00:05:05.736Z,18.67
2022-08-22T00:07:56.392Z,18.70
2022-08-22T00:11:25.950Z,18.70
2022-08-22T00:14:35.308Z,18.67
2022-08-22T00:17:33.966Z,18.66
2022-08-22T00:20:33.233Z,18.65
2022-08-22T00:23:30.471Z,18.64
2022-08-22T00:26:45.438Z,18.64
2022-08-22T00:29:46.003Z,18.64
2022-08-22T00:32:43.558Z,18.64
2022-08-22T00:35:42.926Z,18.63
2022-08-22T00:38:39.771Z,18.62
2022-08-22T00:41:57.120Z,18.60
2022-08-22T00:45:09.473Z,18.62
2022-08-22T00:48:22.051Z,18.63
2022-08-22T00:51:25.087Z,18.58
2022-08-22T00:54:21.459Z,18.59
2022-08-22T00:57:42.416Z,18.62
2022-08-22T01:04:34.040Z,18.65
2022-08-22T01:07:37.931Z,18.66
2022-08-22T01:10:40.775Z,18.68
2022-08-22T01:13:53.356Z,18.70
2022-08-22T01:16:54.967Z,18.72
2022-08-22T01:20:06.350Z,18.76
2022-08-22T01:23:19.120Z,18.79
2022-08-22T01:26:33.774Z,18.78
2022-08-22T01:30:01.108Z,18.82
2022-08-22T01:32:56.931Z,18.82
2022-08-22T01:36:10.359Z,18.84
2022-08-22T01:39:29.118Z,18.85
2022-08-22T01:42:48.186Z,18.86
2022-08-22T01:45:47.418Z,18.89
2022-08-22T01:48:54.255Z,18.91
2022-08-22T01:51:50.949Z,18.91
2022-08-22T01:54:48.928Z,18.92
2022-08-22T01:57:52.151Z,18.91
2022-08-22T02:00:56.862Z,18.92
2022-08-22T02:04:06.091Z,18.96
2022-08-22T02:07:14.498Z,18.98
2022-08-22T02:10:19.908Z,18.98
2022-08-22T02:13:13.205Z,19.01
2022-08-22T02:16:38.953Z,19.02
2022-08-22T02:19:50.277Z,19.04
2022-08-22T02:23:08.313Z,19.04
2022-08-22T02:26:10.143Z,19.05
2022-08-22T02:29:04.714Z,19.09
2022-08-22T02:32:02.134Z,19.12
2022-08-22T02:34:59.663Z,19.16
2022-08-22T02:38:37.154Z,19.19
2022-08-22T02:41:55.609Z,19.19
2022-08-22T02:44:53.057Z,19.17
2022-08-22T02:47:46.339Z,19.18
2022-08-22T02:50:45.645Z,19.17
2022-08-22T02:53:56.482Z,19.17
2022-08-22T02:56:57.884Z,19.18
2022-08-22T03:00:32.641Z,19.19
2022-08-22T03:03:27.440Z,19.24
2022-08-22T03:06:38.557Z,19.26
2022-08-22T03:09:30.847Z,19.27
2022-08-22T03:12:25.674Z,19.29
2022-08-22T03:15:41.023Z,19.29
2022-08-22T03:18:48.873Z,19.29
2022-08-22T03:21:50.418Z,19.28
2022-08-22T03:24:48.459Z,19.28
2022-08-22T03:27:42.494Z,19.26
2022-08-22T03:30:39.419Z,19.26
2022-08-22T03:33:31.881Z,19.25
2022-08-22T03:36:18.937Z,19.25
2022-08-22T03:39:52.117Z,19.22
2022-08-22T03:43:02.219Z,19.22
2022-08-22T03:46:30.889Z,19.23
2022-08-22T03:49:59.524Z,19.18
2022-08-22T03:53:21.093Z,19.15
2022-08-22T03:56:23.906Z,19.12
2022-08-22T03:59:27.447Z,19.11
2022-08-22T04:02:44.007Z,19.12
2022-08-22T04:05:56.553Z,19.11
2022-08-22T04:09:11.112Z,19.09
2022-08-22T04:12:17.972Z,19.07
2022-08-22T04:15:29.169Z,19.08
2022-08-22T04:18:33.440Z,19.09
2022-08-22T04:21:58.285Z,19.11
2022-08-22T04:24:59.505Z,19.14
2022-08-22T04:28:06.184Z,19.14
2022-08-22T04:31:08.861Z,19.14
2022-08-22T04:34:15.387Z,19.14
2022-08-22T04:37:14.829Z,19.17
2022-08-22T04:40:20.225Z,19.18
2022-08-22T04:43:36.770Z,19.18
2022-08-22T04:46:38.879Z,19.19
2022-08-22T04:49:29.027Z,19.21
2022-08-22T04:52:34.931Z,19.19
2022-08-22T04:55:33.356Z,19.23
2022-08-22T04:58:20.211Z,19.24
2022-08-22T05:01:07.268Z,19.28
2022-08-22T05:04:19.163Z,19.32
2022-08-22T05:07:13.594Z,19.36
2022-08-22T05:10:16.559Z,19.37
2022-08-22T05:13:09.082Z,19.39
2022-08-22T05:16:00.019Z,19.41
2022-08-22T05:18:52.978Z,19.44
2022-08-22T05:21:42.968Z,19.46
2022-08-22T05:24:41.280Z,19.47
2022-08-22T05:27:41.171Z,19.50
2022-08-22T05:30:31.587Z,19.49
2022-08-22T05:33:27.049Z,19.49
2022-08-22T05:36:23.453Z,19.46
2022-08-22T05:39:25.240Z,19.49
2022-08-22T05:42:16.078Z,19.51
2022-08-22T05:45:12.067Z,19.52
2022-08-22T05:48:06.579Z,19.54
2022-08-22T05:51:03.922Z,19.55
2022-08-22T05:54:02.456Z,19.61
2022-08-22T05:57:00.116Z,19.61
2022-08-22T05:59:53.031Z,19.64
2022-08-22T06:03:27.820Z,19.67
2022-08-22T06:06:19.025Z,19.68
2022-08-22T06:09:35.524Z,19.70
2022-08-22T06:12:32.047Z,19.73
2022-08-22T06:15:34.417Z,19.75
2022-08-22T06:18:26.953Z,19.74
2022-08-22T06:21:22.247Z,19.74
2022-08-22T06:24:16.737Z,19.72
2022-08-22T06:27:14.414Z,19.74
2022-08-22T06:30:03.996Z,19.76
2022-08-22T06:33:01.071Z,19.80
2022-08-22T06:36:10.182Z,19.84
2022-08-22T06:39:16.426Z,19.88
2022-08-22T06:42:15.895Z,19.91
2022-08-22T06:45:07.457Z,19.90
2022-08-22T06:48:00.553Z,19.92
2022-08-22T06:50:53.578Z,19.92
2022-08-22T06:53:48.048Z,19.95
2022-08-22T06:56:44.835Z,19.98
2022-08-22T06:59:37.599Z,19.97
2022-08-22T07:02:38.167Z,19.94
2022-08-22T07:05:28.752Z,19.96
2022-08-22T07:08:20.156Z,20.00
2022-08-22T07:11:23.757Z,20.00
2022-08-22T07:14:17.184Z,19.99
2022-08-22T07:17:07.713Z,19.97
2022-08-22T07:20:23.685Z,20.01
2022-08-22T07:23:48.109Z,20.02
2022-08-22T07:26:44.636Z,20.03
2022-08-22T07:29:56.163Z,20.05
2022-08-22T07:33:25.975Z,20.06
2022-08-22T07:36:31.967Z,20.02
2022-08-22T07:39:28.536Z,20.01
2022-08-22T07:42:21.786Z,20.04
2022-08-22T07:45:25.240Z,20.03
2022-08-22T07:48:59.519Z,20.08
2022-08-22T07:51:55.369Z,20.15
2022-08-22T07:54:51.176Z,20.17
2022-08-22T07:57:41.816Z,20.21
2022-08-22T08:00:30.413Z,20.22
2022-08-22T08:03:17.846Z,20.24
2022-08-22T08:06:05.530Z,20.27
2022-08-22T08:08:53.963Z,20.29
2022-08-22T08:11:43.761Z,20.32
2022-08-22T08:14:32.598Z,20.31
2022-08-22T08:17:31.384Z,20.34
2022-08-22T08:20:22.590Z,20.37
2022-08-22T08:23:12.126Z,20.40
2022-08-22T08:26:18.457Z,20.40
2022-08-22T08:29:07.437Z,20.44
2022-08-22T08:31:55.424Z,20.49
2022-08-22T08:34:44.282Z,20.54
2022-08-22T08:37:47.952Z,20.63
2022-08-22T08:40:34.975Z,20.70
2022-08-22T08:43:27.847Z,20.80
2022-08-22T08:46:55.231Z,20.94
2022-08-22T08:49:52.127Z,21.06
2022-08-22T08:53:01.512Z,21.14
2022-08-22T08:56:07.363Z,21.26
2022-08-22T08:59:17.895Z,21.34
2022-08-22T09:02:46.734Z,21.46
2022-08-22T09:06:08.235Z,21.58
2022-08-22T09:08:58.160Z,21.67
2022-08-22T09:12:23.774Z,21.70
2022-08-22T09:15:43.843Z,21.73
2022-08-22T09:19:10.597Z,21.83
2022-08-22T09:22:20.759Z,21.95
2022-08-22T09:25:38.428Z,22.08
2022-08-22T09:28:53.556Z,22.29
2022-08-22T09:32:13.156Z,22.34
2022-08-22T09:35:41.181Z,22.25
2022-08-22T09:38:50.024Z,22.17
2022-08-22T09:42:00.315Z,22.10
2022-08-22T09:45:14.744Z,22.03
2022-08-22T09:48:11.749Z,21.98
2022-08-22T09:51:32.166Z,21.90
2022-08-22T09:54:32.757Z,21.82
2022-08-22T09:57:57.100Z,21.68
2022-08-22T10:01:11.798Z,21.66
2022-08-22T10:04:27.616Z,21.68
2022-08-22T10:07:40.582Z,21.76
2022-08-22T10:10:39.622Z,21.78
2022-08-22T10:13:42.935Z,21.77
2022-08-22T10:16:57.320Z,21.82
2022-08-22T10:20:10.739Z,21.96
2022-08-22T10:23:15.761Z,22.07
2022-08-22T10:26:25.651Z,22.14
2022-08-22T10:29:38.054Z,22.24
2022-08-22T10:32:42.855Z,22.32
2022-08-22T10:35:39.993Z,22.34
2022-08-22T10:38:53.294Z,22.42
2022-08-22T10:42:07.216Z,22.57
2022-08-22T10:45:23.911Z,22.77
2022-08-22T10:48:47.199Z,22.92
2022-08-22T10:51:43.716Z,22.99
2022-08-22T10:54:56.658Z,23.05
2022-08-22T10:58:10.868Z,23.05
2022-08-22T11:01:01.658Z,22.94
2022-08-22T11:04:32.998Z,22.80
2022-08-22T11:07:29.374Z,22.72
2022-08-22T11:10:30.945Z,22.74
2022-08-22T11:13:46.051Z,22.74
2022-08-22T11:17:28.791Z,22.77
2022-08-22T11:20:28.580Z,22.80
2022-08-22T11:23:44.625Z,22.79
2022-08-22T11:26:47.051Z,22.76
2022-08-22T11:30:20.170Z,22.72
2022-08-22T11:33:46.437Z,22.75
2022-08-22T11:36:50.737Z,22.77
2022-08-22T11:40:01.732Z,22.80
2022-08-22T11:43:06.996Z,22.87
2022-08-22T11:46:21.048Z,22.87
2022-08-22T11:49:41.995Z,22.89
2022-08-22T11:52:42.535Z,22.99
2022-08-22T11:55:49.748Z,23.02
2022-08-22T11:59:03.383Z,23.00
2022-08-22T12:02:05.123Z,23.02
2022-08-22T12:05:05.252Z,23.06
2022-08-22T12:08:01.877Z,23.07
2022-08-22T12:11:10.345Z,23.02
2022-08-22T12:14:06.304Z,22.97
2022-08-22T12:17:11.568Z,22.83
2022-08-22T12:20:45.402Z,22.76
2022-08-22T12:23:58.120Z,22.82
2022-08-22T12:26:57.582Z,22.99
2022-08-22T12:29:48.400Z,23.11
2022-08-22T12:32:54.505Z,23.20
2022-08-22T12:35:54.849Z,23.43
2022-08-22T12:38:47.532Z,23.45
2022-08-22T12:41:48.427Z,23.56
2022-08-22T12:45:00.205Z,23.74
2022-08-22T12:47:55.913Z,24.00
2022-08-22T12:50:46.334Z,24.20
2022-08-22T12:53:52.873Z,24.32
2022-08-22T12:57:01.678Z,24.51
2022-08-22T12:59:54.354Z,24.70
2022-08-22T13:02:41.778Z,25.20
2022-08-22T13:05:31.422Z,25.48
2022-08-22T13:08:44.777Z,25.65
2022-08-22T13:11:39.319Z,25.67
2022-08-22T13:14:29.163Z,25.63
2022-08-22T13:17:24.383Z,25.56
2022-08-22T13:20:22.408Z,25.63
2022-08-22T13:23:19.472Z,25.75
2022-08-22T13:26:33.223Z,25.87
2022-08-22T13:29:42.879Z,25.96
2022-08-22T13:32:38.356Z,26.12
2022-08-22T13:35:34.027Z,26.33
2022-08-22T13:38:26.676Z,26.42
2022-08-22T13:41:22.150Z,26.50
2022-08-22T13:44:21.361Z,26.60
2022-08-22T13:47:15.029Z,26.70
2022-08-22T13:50:07.118Z,26.74
2022-08-22T13:53:19.749Z,26.74
2022-08-22T13:56:17.621Z,26.76
2022-08-22T13:59:25.341Z,26.77
2022-08-22T14:02:56.615Z,26.83
2022-08-22T14:05:55.005Z,27.04
2022-08-22T14:08:59.319Z,27.14
2022-08-22T14:11:51.276Z,27.09
2022-08-22T14:14:41.581Z,26.84
2022-08-22T14:17:43.111Z,26.76
2022-08-22T14:20:32.368Z,26.60
2022-08-22T14:23:29.526Z,26.38
2022-08-22T14:26:47.443Z,26.15
2022-08-22T14:29:57.197Z,26.03
2022-08-22T14:33:03.621Z,26.07
2022-08-22T14:35:56.666Z,26.32
2022-08-22T14:39:16.559Z,26.40
2022-08-22T14:42:22.969Z,26.24
2022-08-22T14:45:22.623Z,26.17
2022-08-22T14:48:30.246Z,26.00
2022-08-22T14:51:23.056Z,25.85
2022-08-22T14:54:21.546Z,25.78
2022-08-22T14:57:18.499Z,25.85
2022-08-22T15:00:12.488Z,25.83
2022-08-22T15:03:20.460Z,25.71
2022-08-22T15:06:29.229Z,25.72
2022-08-22T15:09:28.539Z,25.66
2022-08-22T15:12:32.838Z,25.52
2022-08-22T15:15:52.879Z,25.33
2022-08-22T15:18:47.585Z,25.09
2022-08-22T15:21:41.499Z,24.98
2022-08-22T15:24:29.914Z,24.85
2022-08-22T15:27:20.748Z,24.63
2022-08-22T15:30:18.756Z,24.51
2022-08-22T15:33:29.348Z,24.41
2022-08-22T15:36:22.441Z,24.30
2022-08-22T15:39:31.667Z,24.21
2022-08-22T15:42:27.581Z,24.13
2022-08-22T15:45:36.187Z,24.11
2022-08-22T15:48:34.147Z,24.05
2022-08-22T15:51:37.346Z,23.94
2022-08-22T15:54:57.012Z,23.79
2022-08-22T15:58:06.763Z,23.59
2022-08-22T16:01:17.966Z,23.44
2022-08-22T16:04:12.827Z,23.29
2022-08-22T16:07:02.428Z,23.22
2022-08-22T16:09:56.866Z,23.14
2022-08-22T16:12:47.808Z,23.11
2022-08-22T16:15:55.720Z,23.06
2022-08-22T16:18:48.856Z,22.95
2022-08-22T16:21:38.495Z,22.82
2022-08-22T16:24:33.824Z,22.76
2022-08-22T16:27:24.860Z,22.67
2022-08-22T16:30:44.197Z,22.62
2022-08-22T16:34:08.943Z,22.58
2022-08-22T16:37:43.088Z,22.53
2022-08-22T16:41:15.932Z,22.43
2022-08-22T16:44:52.086Z,22.38
2022-08-22T16:48:25.921Z,22.25
2022-08-22T16:51:56.979Z,22.12
2022-08-22T16:55:33.141Z,22.11
2022-08-22T16:59:22.479Z,22.07
2022-08-22T17:02:54.105Z,22.03
2022-08-22T17:06:31.967Z,22.00
2022-08-22T17:10:33.120Z,21.92
2022-08-22T17:14:04.963Z,21.80
2022-08-22T17:17:58.278Z,21.73
2022-08-22T17:21:35.000Z,21.63
2022-08-22T17:25:16.052Z,21.49
2022-08-22T17:28:45.948Z,21.45
2022-08-22T17:32:25.101Z,21.44
2022-08-22T17:36:01.048Z,21.40
2022-08-22T17:39:55.901Z,21.35
2022-08-22T17:43:48.613Z,21.32
2022-08-22T17:47:27.077Z,21.25
2022-08-22T17:51:02.955Z,21.20
2022-08-22T17:54:44.049Z,21.12
2022-08-22T17:58:37.403Z,21.09
2022-08-22T18:02:23.070Z,21.09
2022-08-22T18:05:51.943Z,21.08
2022-08-22T18:09:27.933Z,21.04
2022-08-22T18:13:06.673Z,21.01
2022-08-22T18:16:40.941Z,20.95
2022-08-22T18:20:11.125Z,20.90
2022-08-22T18:23:44.956Z,20.88
2022-08-22T18:27:30.009Z,20.84
2022-08-22T18:31:30.013Z,20.81
2022-08-22T18:35:10.118Z,20.76
2022-08-22T18:38:53.984Z,20.72
2022-08-22T18:42:25.180Z,20.68
2022-08-22T18:46:17.015Z,20.66
2022-08-22T18:49:49.176Z,20.61
2022-08-22T18:53:24.745Z,20.55
2022-08-22T18:57:13.154Z,20.51
2022-08-22T19:00:43.059Z,20.49
2022-08-22T19:04:29.234Z,20.45
2022-08-22T19:08:13.071Z,20.43
2022-08-22T19:11:59.178Z,20.43
2022-08-22T19:15:31.027Z,20.44
2022-08-22T19:19:17.087Z,20.43
2022-08-22T19:22:46.015Z,20.43
2022-08-22T19:27:02.154Z,20.44
2022-08-22T19:30:33.004Z,20.44
2022-08-22T19:34:09.380Z,20.44
2022-08-22T19:37:52.141Z,20.42
2022-08-22T19:41:23.223Z,20.41
2022-08-22T19:44:55.090Z,20.38
2022-08-22T19:48:31.231Z,20.38
2022-08-22T19:52:07.943Z,20.39
2022-08-22T19:55:53.083Z,20.40
2022-08-22T19:59:31.231Z,20.37
2022-08-22T20:03:09.160Z,20.36
2022-08-22T20:06:56.997Z,20.35
2022-08-22T20:10:42.097Z,20.35
2022-08-22T20:14:09.921Z,20.33
2022-08-22T20:17:41.305Z,20.31
2022-08-22T20:21:21.944Z,20.30
2022-08-22T20:25:41.378Z,20.30
2022-08-22T20:29:13.094Z,20.30
2022-08-22T20:35:36.834Z,20.30
2022-08-22T20:39:12.893Z,20.29
2022-08-22T20:42:53.808Z,20.25
2022-08-22T20:46:43.562Z,20.24
2022-08-22T20:50:19.834Z,20.23
2022-08-22T20:53:55.859Z,20.21
2022-08-22T20:57:37.803Z,20.20
2022-08-22T21:01:11.018Z,20.19
2022-08-22T21:04:46.824Z,20.20
2022-08-22T21:08:30.865Z,20.19
2022-08-22T21:12:19.531Z,20.23
2022-08-22T21:16:19.437Z,20.23
2022-08-22T21:20:10.994Z,20.12
2022-08-22T21:24:11.432Z,20.14
2022-08-22T21:28:11.096Z,20.19
2022-08-22T21:31:47.215Z,20.19
2022-08-22T21:35:23.067Z,20.17
2022-08-22T21:38:55.228Z,20.13
2022-08-22T21:42:31.096Z,20.08
2022-08-22T21:46:09.236Z,19.93
2022-08-22T23:04:45.411Z,18.72
2022-08-22T23:07:35.961Z,18.73
2022-08-22T23:10:23.349Z,18.71
2022-08-22T23:13:10.642Z,18.71
2022-08-22T23:15:57.633Z,18.68
2022-08-22T23:18:44.841Z,18.65
2022-08-22T23:21:31.767Z,18.60
2022-08-22T23:24:18.708Z,18.54
2022-08-22T23:27:07.881Z,18.49
2022-08-22T23:29:54.842Z,18.47
2022-08-22T23:32:41.916Z,18.41
2022-08-22T23:35:29.258Z,18.39
2022-08-22T23:38:16.656Z,18.39
2022-08-22T23:41:09.870Z,18.39
2022-08-22T23:43:57.501Z,18.40
2022-08-22T23:46:44.601Z,18.34
2022-08-22T23:49:33.040Z,18.31
2022-08-22T23:52:20.896Z,18.26
2022-08-22T23:55:08.879Z,18.25
2022-08-22T23:57:55.846Z,18.25
